Nearby METAR Reports

 

CYYY - Mont Joli Airpor, Quebec, Canada
Distance from station: NE 44km
Mise à jour: Sun, 20-Jan-2019 11:00am EST
Neige, couvert
Neige, couvert
 Wind from ENE
Vent: ENE 30 km/h
Température: -19°C
Facteur vent: -31°C
Point de rosée: -23°C
Humidité: 71%
Baromètre: 1022.7 hPa
Résumé: Neige
Clouds: couvert
Visibility: 2 km
Cloud details: couvert 152 m
2019/01/20 16:00 CYYY 201600Z 07016KT 1/2SM R06/4000FT/N SN VV005 M19/M23 A3020 RMK SN8 PRESFR SLP235
CWZS - Amqui, Quebec, Canada
Distance from station: E 94km
Mise à jour: Sun, 20-Jan-2019 11:00am EST

 Wind from N
Vent: N 6 km/h
Température: -21°C
Point de rosée: -24°C
Humidité: 77%
2019/01/20 16:00 CWZS 201600Z AUTO 36003KT M21/M24 RMK AO1 3PAST HR PRESFR 8050 SLP227 P0005 T12141237 50013
 
CWQO - Ile Bicquette, Quebec, Canada
Distance from station: ONO 15km
Mise à jour: Sun, 20-Jan-2019 11:00am EST

 Wind from ENE
Vent: ENE 24 km/h, Rafale: 35 km/h
Température: -18°C
Facteur vent: -28°C
Point de rosée: -21°C
Humidité: 78%
2019/01/20 16:00 CWQO 201600Z AUTO 06013G19KT M18/M21 RMK AO1 PK WND 05020/1506 T11801206
CWNH - Riviere Du Loup, Quebec, Canada
Distance from station: SO 90km
Mise à jour: Sun, 20-Jan-2019 11:00am EST

 Wind from NE
Vent: NE 13 km/h, Rafale: 28 km/h
Température: -22°C
Facteur vent: -31°C
Point de rosée: -25°C
Humidité: 77%
2019/01/20 16:00 CWNH 201600Z AUTO 04007G15KT M22/M25 RMK AO1 5PAST HR PRESFR SOG 18 8047 SLP206 P0002 T12231253 50031
 
CWAF - Ile Rouge(Maps), Quebec, Canada
Distance from station: OSO 70km
Mise à jour: Sun, 20-Jan-2019 11:00am EST

 Wind from NNE
Vent: NNE 50 km/h, Rafale: 61 km/h
Température: -18°C
Facteur vent: -32°C
Point de rosée: -20°C
Humidité: 84%
2019/01/20 16:00 CWAF 201600Z AUTO 03027G33KT M18/M20 RMK AO1 PK WND 02034/1549 T11831195
CYBC - Baie Comeau Airp, Quebec, Canada
Distance from station: NNE 90km
Mise à jour: Sun, 20-Jan-2019 11:00am EST
Light snow, couvert
Light snow, couvert
 Wind from ENE
Vent: ENE 30 km/h, Rafale: 43 km/h
Température: -17°C
Facteur vent: -29°C
Point de rosée: -20°C
Humidité: 78%
Baromètre: 1024.7 hPa
Résumé: Light Snow
Clouds: couvert
Visibility: 8 km
Cloud details: couvert 457 m
2019/01/20 16:00 CYBC 201600Z AUTO 07016G23KT 5/8SM R10/3000V4500FT/ -SN OVC015 M17/M20 A3026 RMK PRESFR SLP251